PMDY METAR and TAF weather

Enter ICAO airport designator
Station Type Date Time Source
PMDY METAR 2019/10/15 20:56 UTC NOAA

PMDY 152056Z AUTO 14007KT 10SM CLR 28/25 A3013 RMK AO2 SLP202 T02780250 51019


Station Type Date Time Source
PMDY Decoded METAR 2019/10/15 20:56 UTC NOAA

Sand Island, Henderson Field Airport, HI, United States (PMDY) 28-13N 177-22W 6M
Oct 15, 2019 - 04:56 PM EDT / 2019.10.15 2056 UTC
Wind: from the SE (140 degrees) at 8 MPH (7 KT):0
Visibility: 10 mile(s):0
Sky conditions: clear
Temperature: 82.0 F (27.8 C)
Dew Point: 77.0 F (25.0 C)
Relative Humidity: 84%
Pressure (altimeter): 30.13 in. Hg (1020 hPa)
Pressure tendency: 0.06 inches (1.9 hPa) higher than three hours ago
ob: PMDY 152056Z AUTO 14007KT 10SM CLR 28/25 A3013 RMK AO2 SLP202 T02780250 51019
cycle: 21

Station Type Date Time Source
PMDY TAF 2019/10/15 18:27 UTC NOAA

TAF PMDY 151724Z 1518/1618 15009KT P6SM FEW025 SCT045
FM161000 11008KT P6SM SCT020 SCT035

Example: see airport list